createdAt,value
2023-04-16T00:01:08.350Z,7.86
2023-04-16T00:04:11.791Z,7.88
2023-04-16T00:07:14.702Z,7.83
2023-04-16T00:10:17.884Z,7.88
2023-04-16T00:13:21.435Z,7.90
2023-04-16T00:16:24.547Z,7.85
2023-04-16T00:19:29.280Z,7.74
2023-04-16T00:22:32.565Z,7.62
2023-04-16T00:25:35.342Z,7.74
2023-04-16T00:28:39.699Z,7.69
2023-04-16T00:31:42.669Z,7.71
2023-04-16T00:34:46.570Z,7.51
2023-04-16T00:37:49.365Z,7.35
2023-04-16T00:40:52.644Z,7.41
2023-04-16T00:43:56.280Z,7.48
2023-04-16T00:46:59.937Z,7.50
2023-04-16T00:50:04.595Z,7.55
2023-04-16T00:53:09.468Z,7.53
2023-04-16T00:56:13.141Z,7.59
2023-04-16T00:59:16.912Z,7.51
2023-04-16T01:02:19.840Z,7.42
2023-04-16T01:05:26.639Z,7.48
2023-04-16T01:08:29.748Z,7.43
2023-04-16T01:11:33.336Z,7.45
2023-04-16T01:14:36.654Z,7.40
2023-04-16T01:17:41.479Z,7.43
2023-04-16T01:20:45.644Z,7.46
2023-04-16T01:23:48.876Z,7.38
2023-04-16T01:26:51.833Z,7.20
2023-04-16T01:29:57.153Z,7.16
2023-04-16T01:33:02.148Z,7.07
2023-04-16T01:36:05.700Z,7.23
2023-04-16T01:39:11.924Z,7.26
2023-04-16T01:42:15.631Z,7.25
2023-04-16T01:45:20.820Z,7.29
2023-04-16T01:48:29.332Z,7.18
2023-04-16T01:51:32.518Z,7.05
2023-04-16T01:54:37.976Z,6.98
2023-04-16T01:57:41.981Z,6.96
2023-04-16T02:00:46.424Z,6.79
2023-04-16T02:03:50.920Z,6.92
2023-04-16T02:06:54.031Z,6.82
2023-04-16T02:09:58.131Z,6.66
2023-04-16T02:13:01.238Z,6.76
2023-04-16T02:16:04.556Z,6.74
2023-04-16T02:19:10.381Z,6.75
2023-04-16T02:22:13.946Z,6.66
2023-04-16T02:25:17.077Z,6.51
2023-04-16T02:28:21.928Z,6.53
2023-04-16T02:31:24.857Z,6.45
2023-04-16T02:34:31.276Z,6.46
2023-04-16T02:37:35.089Z,6.46
2023-04-16T02:40:38.564Z,6.40
2023-04-16T02:43:41.265Z,6.47
2023-04-16T02:46:44.650Z,6.47
2023-04-16T02:49:49.388Z,6.52
2023-04-16T02:52:55.291Z,6.32
2023-04-16T02:55:58.242Z,6.31
2023-04-16T02:59:02.242Z,6.26
2023-04-16T03:02:05.043Z,6.21
2023-04-16T03:05:10.337Z,6.15
2023-04-16T03:08:14.713Z,6.31
2023-04-16T03:11:18.542Z,6.20
2023-04-16T03:14:21.521Z,6.16
2023-04-16T03:17:26.566Z,6.05
2023-04-16T03:20:29.752Z,6.03
2023-04-16T03:23:36.066Z,6.04
2023-04-16T03:26:40.821Z,5.97
2023-04-16T03:29:44.873Z,6.02
2023-04-16T03:32:50.549Z,6.23
2023-04-16T03:35:58.802Z,6.25
2023-04-16T03:39:05.611Z,6.28
2023-04-16T03:42:10.342Z,6.14
2023-04-16T03:45:16.715Z,6.10
2023-04-16T03:48:20.257Z,6.32
2023-04-16T03:51:24.556Z,6.25
2023-04-16T03:54:28.058Z,6.24
2023-04-16T03:57:36.219Z,6.39
2023-04-16T04:00:43.204Z,6.41
2023-04-16T04:03:49.899Z,6.56
2023-04-16T04:06:56.999Z,6.69
2023-04-16T04:10:03.346Z,6.74
2023-04-16T04:13:11.019Z,6.79
2023-04-16T04:16:15.418Z,6.90
2023-04-16T04:19:20.145Z,6.91
2023-04-16T04:22:24.218Z,6.76
2023-04-16T04:25:29.402Z,6.87
2023-04-16T04:28:35.533Z,7.27
2023-04-16T04:31:38.561Z,7.23
2023-04-16T04:34:41.819Z,7.11
2023-04-16T04:37:45.724Z,7.06
2023-04-16T04:40:51.029Z,7.00
2023-04-16T04:43:57.063Z,7.18
2023-04-16T04:47:02.943Z,7.09
2023-04-16T04:50:08.569Z,7.16
2023-04-16T04:53:17.831Z,7.55
2023-04-16T04:56:22.596Z,7.66
2023-04-16T04:59:33.959Z,7.64
2023-04-16T05:02:38.673Z,7.56
2023-04-16T05:05:42.919Z,7.56
2023-04-16T05:08:46.000Z,7.53
2023-04-16T05:11:49.665Z,7.62
2023-04-16T05:14:58.851Z,7.72
2023-04-16T05:18:03.745Z,7.53
2023-04-16T05:21:06.894Z,7.88
2023-04-16T05:24:10.047Z,8.04
2023-04-16T05:27:12.919Z,8.28
2023-04-16T05:30:18.165Z,8.38
2023-04-16T05:33:24.272Z,8.41
2023-04-16T05:36:27.836Z,8.41
2023-04-16T05:39:30.773Z,8.35
2023-04-16T05:42:36.805Z,8.29
2023-04-16T05:45:41.397Z,8.45
2023-04-16T05:48:46.355Z,8.38
2023-04-16T05:51:50.856Z,8.58
2023-04-16T05:55:01.888Z,9.04
2023-04-16T05:58:06.815Z,9.11
2023-04-16T06:01:32.798Z,9.33
2023-04-16T06:05:00.790Z,9.16
2023-04-16T06:08:35.079Z,9.20
2023-04-16T06:12:02.608Z,9.33
2023-04-16T06:15:29.395Z,9.55
2023-04-16T06:18:32.851Z,9.64
2023-04-16T06:21:35.976Z,9.89
2023-04-16T06:25:12.145Z,9.76
2023-04-16T06:28:49.283Z,10.00
2023-04-16T06:32:23.528Z,10.31
2023-04-16T06:35:32.645Z,10.37
2023-04-16T06:39:18.437Z,10.71
2023-04-16T06:42:45.643Z,10.65
2023-04-16T06:46:23.767Z,11.05
2023-04-16T06:49:51.981Z,11.14
2023-04-16T06:53:49.142Z,11.22
2023-04-16T06:57:14.379Z,11.44
2023-04-16T07:00:26.728Z,12.16
2023-04-16T07:07:25.312Z,13.88
2023-04-16T07:10:47.892Z,14.13
2023-04-16T07:14:34.534Z,14.37
2023-04-16T07:18:02.492Z,13.36
2023-04-16T07:21:20.286Z,13.15
2023-04-16T07:24:52.749Z,13.02
2023-04-16T07:35:34.088Z,13.43
2023-04-16T07:39:18.529Z,14.27
2023-04-16T07:42:33.210Z,14.19
2023-04-16T07:46:16.918Z,13.90
2023-04-16T07:49:48.969Z,13.87
2023-04-16T07:53:15.596Z,13.87
2023-04-16T07:59:57.650Z,14.16
2023-04-16T08:03:48.948Z,14.57
2023-04-16T08:07:13.040Z,15.33
2023-04-16T08:10:20.297Z,15.81
2023-04-16T08:14:04.314Z,15.92
2023-04-16T08:17:18.665Z,15.01
2023-04-16T08:20:38.647Z,15.19
2023-04-16T08:23:42.452Z,15.98
2023-04-16T08:26:49.888Z,16.34
2023-04-16T08:30:09.477Z,16.64
2023-04-16T08:33:19.700Z,16.95
2023-04-16T08:36:26.477Z,16.26
2023-04-16T08:39:32.396Z,16.47
2023-04-16T08:42:53.019Z,16.43
2023-04-16T08:46:01.359Z,16.99
2023-04-16T08:49:09.572Z,16.05
2023-04-16T08:52:20.449Z,16.48
2023-04-16T09:02:16.900Z,16.37
2023-04-16T09:05:25.709Z,16.11
2023-04-16T09:08:29.949Z,15.24
2023-04-16T09:11:34.624Z,15.27
2023-04-16T09:14:39.146Z,15.04
2023-04-16T09:17:43.386Z,14.72
2023-04-16T09:20:47.652Z,14.61
2023-04-16T09:23:53.616Z,14.65
2023-04-16T09:26:57.500Z,14.72
2023-04-16T09:30:04.186Z,14.69
2023-04-16T09:33:13.243Z,14.78
2023-04-16T09:36:23.363Z,14.81
2023-04-16T09:39:27.498Z,15.03
2023-04-16T09:42:32.416Z,15.22
2023-04-16T09:45:51.751Z,15.45
2023-04-16T09:48:56.613Z,15.16
2023-04-16T09:52:00.099Z,16.16
2023-04-16T09:55:03.362Z,16.69
2023-04-16T09:58:06.460Z,16.43
2023-04-16T10:01:11.537Z,16.33
2023-04-16T10:04:16.165Z,16.06
2023-04-16T10:07:19.666Z,17.13
2023-04-16T10:10:23.441Z,17.43
2023-04-16T10:13:31.114Z,17.88
2023-04-16T10:16:35.543Z,16.81
2023-04-16T10:19:41.581Z,17.91
2023-04-16T10:22:45.271Z,18.27
2023-04-16T10:25:52.369Z,18.84
2023-04-16T10:28:55.848Z,18.77
2023-04-16T10:32:00.425Z,18.84
2023-04-16T10:35:05.365Z,19.08
2023-04-16T10:38:28.587Z,19.02
2023-04-16T10:41:33.659Z,19.83
2023-04-16T10:44:36.680Z,19.76
2023-04-16T10:47:45.322Z,19.44
2023-04-16T10:51:01.283Z,18.97
2023-04-16T10:54:09.231Z,19.39
2023-04-16T10:57:21.509Z,20.83
2023-04-16T11:00:29.490Z,20.72
2023-04-16T11:03:32.655Z,20.88
2023-04-16T11:06:37.750Z,21.54
2023-04-16T11:09:50.459Z,20.49
2023-04-16T11:12:57.293Z,19.85
2023-04-16T11:16:01.753Z,20.32
2023-04-16T11:19:05.272Z,20.69
2023-04-16T11:22:08.749Z,20.36
2023-04-16T11:25:13.672Z,20.16
2023-04-16T11:28:16.528Z,19.86
2023-04-16T11:31:20.087Z,19.45
2023-04-16T11:34:26.504Z,19.90
2023-04-16T11:37:36.554Z,18.72
2023-04-16T11:40:42.549Z,18.18
2023-04-16T11:43:47.099Z,18.47
2023-04-16T11:46:54.836Z,18.82
2023-04-16T11:50:15.242Z,18.40
2023-04-16T11:53:18.631Z,17.86
2023-04-16T11:56:35.983Z,18.31
2023-04-16T12:00:02.474Z,18.83
2023-04-16T12:03:15.927Z,18.44
2023-04-16T12:06:21.881Z,18.44
2023-04-16T12:09:30.016Z,18.82
2023-04-16T12:12:35.752Z,18.92
2023-04-16T12:15:49.019Z,18.70
2023-04-16T12:19:06.361Z,18.69
2023-04-16T12:22:10.157Z,18.75
2023-04-16T12:25:20.759Z,18.70
2023-04-16T12:28:34.140Z,18.67
2023-04-16T12:31:39.887Z,18.60
2023-04-16T12:34:52.052Z,18.29
2023-04-16T12:37:55.999Z,18.45
2023-04-16T12:41:00.139Z,18.05
2023-04-16T12:44:22.107Z,18.28
2023-04-16T12:47:27.547Z,18.54
2023-04-16T12:50:32.625Z,18.60
2023-04-16T12:53:36.794Z,18.51
2023-04-16T12:56:39.762Z,18.91
2023-04-16T12:59:43.127Z,18.68
2023-04-16T13:02:47.740Z,18.84
2023-04-16T13:05:51.239Z,18.27
2023-04-16T13:08:54.517Z,18.86
2023-04-16T13:11:57.210Z,18.70
2023-04-16T13:15:00.556Z,18.96
2023-04-16T13:18:03.517Z,19.14
2023-04-16T13:21:06.974Z,18.46
2023-04-16T13:24:12.756Z,18.34
2023-04-16T13:27:17.002Z,18.93
2023-04-16T13:30:20.331Z,18.71
2023-04-16T13:33:23.552Z,18.28
2023-04-16T13:36:27.783Z,18.12
2023-04-16T13:39:33.798Z,18.34
2023-04-16T13:42:37.304Z,18.64
2023-04-16T13:45:42.057Z,18.73
2023-04-16T13:48:46.499Z,18.75
2023-04-16T13:51:51.224Z,18.46
2023-04-16T13:54:54.920Z,18.52
2023-04-16T13:57:58.977Z,18.11
2023-04-16T14:01:02.100Z,18.46
2023-04-16T14:04:09.177Z,18.00
2023-04-16T14:07:15.212Z,17.94
2023-04-16T14:10:19.202Z,17.99
2023-04-16T14:13:22.030Z,17.91
2023-04-16T14:16:25.286Z,17.91
2023-04-16T14:19:28.350Z,17.86
2023-04-16T14:22:32.773Z,17.84
2023-04-16T14:25:35.921Z,17.73
2023-04-16T14:28:41.793Z,17.78
2023-04-16T14:31:48.399Z,17.94
2023-04-16T14:34:52.689Z,17.93
2023-04-16T14:37:56.430Z,17.97
2023-04-16T14:41:11.927Z,17.84
2023-04-16T14:44:15.682Z,18.12
2023-04-16T14:47:21.485Z,18.20
2023-04-16T14:50:27.975Z,18.25
2023-04-16T14:53:32.760Z,18.34
2023-04-16T14:56:36.091Z,18.09
2023-04-16T14:59:40.008Z,18.00
2023-04-16T15:02:44.814Z,18.33
2023-04-16T15:05:55.374Z,18.26
2023-04-16T15:08:58.689Z,18.14
2023-04-16T15:12:03.306Z,18.03
2023-04-16T15:15:07.880Z,18.19
2023-04-16T15:18:11.457Z,18.14
2023-04-16T15:21:24.293Z,18.18
2023-04-16T15:25:24.599Z,18.34
2023-04-16T15:33:06.614Z,18.48
2023-04-16T15:36:52.302Z,18.21
2023-04-16T15:44:14.388Z,18.45
2023-04-16T15:47:17.366Z,18.24
2023-04-16T15:50:22.006Z,18.20
2023-04-16T15:53:24.875Z,18.23
2023-04-16T15:56:28.188Z,18.23
2023-04-16T15:59:33.632Z,18.19
2023-04-16T16:02:40.393Z,18.10
2023-04-16T16:09:06.795Z,18.08
2023-04-16T16:12:10.374Z,18.04
2023-04-16T16:15:15.323Z,17.96
2023-04-16T16:18:19.877Z,17.34
2023-04-16T16:21:25.164Z,17.42
2023-04-16T16:24:28.921Z,17.16
2023-04-16T16:27:32.098Z,17.11
2023-04-16T16:30:35.468Z,17.20
2023-04-16T16:33:40.120Z,17.06
2023-04-16T16:36:46.557Z,17.11
2023-04-16T16:39:51.741Z,17.16
2023-04-16T16:42:56.946Z,17.06
2023-04-16T16:46:01.145Z,17.13
2023-04-16T16:49:11.545Z,16.95
2023-04-16T16:52:18.916Z,16.99
2023-04-16T16:55:24.906Z,17.01
2023-04-16T16:58:28.008Z,17.08
2023-04-16T17:01:38.034Z,16.99
2023-04-16T17:04:41.179Z,16.82
2023-04-16T17:07:44.834Z,16.84
2023-04-16T17:10:48.260Z,16.83
2023-04-16T17:13:51.976Z,16.88
2023-04-16T17:17:01.617Z,16.71
2023-04-16T17:20:14.480Z,16.71
2023-04-16T17:23:21.195Z,16.71
2023-04-16T17:26:37.795Z,16.66
2023-04-16T17:30:05.012Z,16.55
2023-04-16T17:33:17.470Z,16.54
2023-04-16T17:36:23.273Z,16.55
2023-04-16T17:39:27.287Z,16.45
2023-04-16T17:42:30.525Z,16.36
2023-04-16T17:45:36.615Z,16.35
2023-04-16T17:48:39.708Z,16.22
2023-04-16T17:51:44.694Z,16.24
2023-04-16T17:54:48.678Z,16.24
2023-04-16T17:57:52.255Z,16.18
2023-04-16T18:00:55.866Z,16.04
2023-04-16T18:04:00.486Z,15.93
2023-04-16T18:07:05.064Z,15.88
2023-04-16T18:10:09.509Z,15.82
2023-04-16T18:13:12.862Z,15.67
2023-04-16T18:16:19.954Z,15.57
2023-04-16T18:19:23.518Z,15.52
2023-04-16T18:22:28.631Z,15.39
2023-04-16T18:25:34.938Z,15.29
2023-04-16T18:28:39.582Z,15.35
2023-04-16T18:31:43.044Z,15.38
2023-04-16T18:34:46.584Z,15.24
2023-04-16T18:37:49.678Z,15.07
2023-04-16T18:40:53.284Z,15.00
2023-04-16T18:43:56.695Z,14.75
2023-04-16T18:46:59.973Z,14.75
2023-04-16T18:50:03.770Z,14.77
2023-04-16T18:53:10.761Z,14.87
2023-04-16T18:56:20.863Z,14.59
2023-04-16T18:59:42.789Z,14.67
2023-04-16T19:02:54.377Z,14.75
2023-04-16T19:06:02.049Z,14.63
2023-04-16T19:09:11.281Z,14.65
2023-04-16T19:12:21.622Z,14.59
2023-04-16T19:15:32.648Z,14.59
2023-04-16T19:18:39.521Z,14.55
2023-04-16T19:21:42.851Z,14.38
2023-04-16T19:24:49.133Z,14.17
2023-04-16T19:27:52.283Z,14.53
2023-04-16T19:30:56.369Z,14.35
2023-04-16T19:33:59.753Z,14.23
2023-04-16T19:37:04.504Z,14.17
2023-04-16T19:40:10.016Z,14.17
2023-04-16T19:43:15.218Z,14.20
2023-04-16T19:46:18.320Z,14.05
2023-04-16T19:49:24.776Z,14.04
2023-04-16T19:52:28.489Z,13.96
2023-04-16T19:55:35.003Z,13.86
2023-04-16T19:58:39.463Z,13.79
2023-04-16T20:01:43.171Z,13.72
2023-04-16T20:04:48.557Z,13.74
2023-04-16T20:07:57.988Z,13.75
2023-04-16T20:11:05.536Z,13.65
2023-04-16T20:17:50.962Z,13.89
2023-04-16T20:21:25.292Z,13.82
2023-04-16T20:24:32.414Z,13.79
2023-04-16T20:27:35.592Z,13.86
2023-04-16T20:30:39.764Z,13.83
2023-04-16T20:33:43.125Z,13.83
2023-04-16T20:36:46.755Z,13.87
2023-04-16T20:39:50.500Z,13.73
2023-04-16T20:42:55.304Z,13.77
2023-04-16T20:45:58.164Z,13.75
2023-04-16T20:49:01.960Z,13.73
2023-04-16T20:52:07.397Z,13.84
2023-04-16T20:55:10.586Z,13.83
2023-04-16T20:58:13.608Z,13.87
2023-04-16T21:01:18.289Z,13.84
2023-04-16T21:04:21.307Z,13.74
2023-04-16T21:07:38.017Z,13.83
2023-04-16T21:10:41.222Z,13.83
2023-04-16T21:13:44.494Z,13.93
2023-04-16T21:16:47.299Z,13.82
2023-04-16T21:19:50.498Z,13.82
2023-04-16T21:22:56.814Z,13.72
2023-04-16T21:25:59.862Z,13.72
2023-04-16T21:29:02.548Z,13.71
2023-04-16T21:32:05.842Z,13.70
2023-04-16T21:35:09.019Z,13.67
2023-04-16T21:38:11.893Z,13.72
2023-04-16T21:41:14.681Z,13.62
2023-04-16T21:44:17.790Z,13.57
2023-04-16T21:47:20.379Z,13.53
2023-04-16T21:50:24.178Z,13.49
2023-04-16T21:53:31.963Z,13.45
2023-04-16T21:56:34.891Z,13.38
2023-04-16T21:59:38.372Z,13.33
2023-04-16T22:02:42.917Z,13.27
2023-04-16T22:05:46.567Z,13.21
2023-04-16T22:08:49.956Z,13.08
2023-04-16T22:11:54.125Z,13.15
2023-04-16T22:15:02.433Z,13.11
2023-04-16T22:18:06.620Z,13.13
2023-04-16T22:21:09.214Z,13.14
2023-04-16T22:24:12.301Z,13.18
2023-04-16T22:27:15.616Z,13.07
2023-04-16T22:30:19.066Z,12.93
2023-04-16T22:33:21.807Z,12.96
2023-04-16T22:36:24.965Z,12.94
2023-04-16T22:39:28.658Z,12.98
2023-04-16T22:42:31.729Z,13.03
2023-04-16T22:45:34.702Z,13.03
2023-04-16T22:48:40.481Z,12.93
2023-04-16T22:51:43.656Z,12.94
2023-04-16T22:54:46.786Z,13.01
2023-04-16T22:57:49.363Z,12.98
2023-04-16T23:00:52.986Z,12.95
2023-04-16T23:03:55.889Z,12.90
2023-04-16T23:06:58.868Z,12.97
2023-04-16T23:10:01.746Z,12.91
2023-04-16T23:13:04.819Z,12.93
2023-04-16T23:16:07.840Z,12.95
2023-04-16T23:19:14.821Z,12.95
2023-04-16T23:22:17.671Z,12.93
2023-04-16T23:25:22.450Z,12.95
2023-04-16T23:28:25.622Z,12.93
2023-04-16T23:31:28.650Z,12.98
2023-04-16T23:34:32.183Z,13.05
2023-04-16T23:37:35.295Z,12.93
2023-04-16T23:40:38.364Z,12.95
2023-04-16T23:43:41.641Z,13.01
2023-04-16T23:46:44.365Z,13.00
2023-04-16T23:49:47.361Z,13.08
2023-04-16T23:52:50.286Z,13.01
2023-04-16T23:55:53.770Z,12.98
2023-04-16T23:58:57.018Z,12.87
